Poplar Corners, Mississippi
Current Conditions -  °F | °C
As of 2:54 AM on Friday 31 Oct 2014 (Local Time) from KMEM Reporting Station
Clear Clear  
Wind Chill: 55°   Ceiling: Unl
Heat Index: 55°   Visibility: 10mi
Dew Point: 47°   Wind: 5mph
Humidity: 74%   Direction: 310°NW
Pressure: 29.98"   Gusts: NA
Location:  34.9578°N, 90.1057°W
Report Text: KMEM 310754Z 31004KT 10SM CLR 13/08 A2998 RMK AO2 SLP150 T01280083 $
Loading
Personal Weather Stations






























Interactive Weather Map
Tropical Storm Tracking
New forecast layout! Learn more

10-Day Weather Forecast

Advertisements
Track Severe Weather on mobile